»·PEaware :: N1399 KSAN-KPSP

N1399 :: KSAN-KPSP

FLIGHT INFORMATION

Flight Status: Arrived
Operator: Privately registered:
United States
More flights under this callsign
Pilot: David C. (16084)
Aircraft: CESSNA 310
(C310)
More flights by this aircraft type
Origin: KSAN San Diego Intl-Lindbergh
United States
Destination: KPSP Palm Springs Intl
United States
More flights between these airports :: More routes between these airports
Route: BRDR7 JLI V208 TRM
File this flight plan on PilotEdge
Remarks:
Altitude:
(Current/Filed)
9,000ft
Speed:
(Current/Filed)
262kts
Departed: 20-Nov-19 12:31 PM
Arrived: 20-Nov-19 01:17 PM
Distance/Time
Traveled:
74nm/0:46
Distance/Time
To Go:
Arrived

Flight Plot

Page will automatically refresh every two minutes.


Map Options




Map Legend


Flown Route
Filed Route
Departure Airport
Arrival Airport
Navaid (VOR, NDB)
Fix

Horizontal Profiles

Position Reports

Time Latitude Longitude Heading Altitude Ground
Speed
20-Nov-19 11:59 32.732525 -117.177101 194 20ft 0kts
20-Nov-19 12:00 32.732525 -117.177101 194 20ft 0kts
20-Nov-19 12:01 32.732525 -117.177101 194 20ft 0kts
20-Nov-19 12:02 32.732525 -117.177101 194 20ft 0kts
20-Nov-19 12:03 32.732525 -117.177101 194 20ft 0kts
20-Nov-19 12:05 32.732525 -117.177101 194 20ft 0kts
20-Nov-19 12:06 32.732525 -117.177101 194 20ft 0kts
20-Nov-19 12:07 32.732525 -117.177101 194 20ft 0kts
20-Nov-19 12:08 32.732525 -117.177101 194 20ft 0kts
20-Nov-19 12:09 32.732525 -117.177101 194 20ft 0kts
20-Nov-19 12:10 32.732525 -117.177101 194 20ft 0kts
20-Nov-19 12:11 32.732525 -117.177101 194 20ft 0kts
20-Nov-19 12:12 32.732525 -117.177101 194 20ft 0kts
20-Nov-19 12:13 32.732525 -117.177101 194 20ft 0kts
20-Nov-19 12:14 32.732525 -117.177101 194 20ft 0kts
20-Nov-19 12:15 32.732525 -117.177101 194 20ft 0kts
20-Nov-19 12:16 32.732525 -117.177101 194 20ft 0kts
20-Nov-19 12:17 32.732525 -117.177101 194 20ft 0kts
20-Nov-19 12:18 32.732525 -117.177101 194 20ft 0kts
20-Nov-19 12:19 32.732525 -117.177101 194 20ft 0kts
20-Nov-19 12:20 32.732525 -117.177101 194 20ft 0kts
20-Nov-19 12:20 32.732525 -117.177101 194 20ft 0kts
20-Nov-19 12:22 32.732525 -117.177101 194 20ft 0kts
20-Nov-19 12:23 32.732525 -117.177101 194 20ft 0kts
20-Nov-19 12:23 32.732525 -117.177101 193 20ft 0kts
20-Nov-19 12:25 32.732525 -117.177101 194 20ft 0kts
20-Nov-19 12:26 32.732258 -117.177179 194 20ft 3kts
20-Nov-19 12:26 32.730974 -117.175570 132 20ft 6kts
20-Nov-19 12:27 32.730962 -117.175554 132 20ft 0kts
20-Nov-19 12:29 32.730962 -117.175554 132 20ft 0kts
20-Nov-19 12:29 32.730707 -117.175236 141 20ft 6kts
20-Nov-19 12:30 32.735928 -117.192804 292 536ft 111kts
20-Nov-19 12:31 32.751237 -117.229945 289 1835ft 127kts
20-Nov-19 12:32 32.766028 -117.266276 287 3329ft 117kts
20-Nov-19 12:33 32.768606 -117.295954 184 4610ft 116kts
20-Nov-19 12:34 32.744806 -117.265487 133 5789ft 132kts
20-Nov-19 12:35 32.722709 -117.229867 135 6792ft 134kts
20-Nov-19 12:36 32.700440 -117.193616 132 7665ft 136kts
20-Nov-19 12:37 32.678376 -117.156929 134 8472ft 135kts
20-Nov-19 12:38 32.656313 -117.119462 133 9005ft 151kts
20-Nov-19 12:39 32.628588 -117.074972 133 8991ft 174kts
20-Nov-19 12:40 32.612976 -117.018533 100 8991ft 192kts
20-Nov-19 12:41 32.613146 -116.954274 86 8990ft 198kts
20-Nov-19 12:42 32.619354 -116.888564 87 8991ft 200kts
20-Nov-19 12:43 32.625967 -116.822129 86 8980ft 202kts
20-Nov-19 12:44 32.646734 -116.762955 17 8964ft 200kts
20-Nov-19 12:45 32.700121 -116.745117 9 8959ft 204kts
20-Nov-19 12:46 32.755479 -116.725197 10 8954ft 210kts
20-Nov-19 12:47 32.811653 -116.704957 10 8950ft 211kts
20-Nov-19 12:48 32.867761 -116.684715 11 8951ft 210kts
20-Nov-19 12:49 32.923676 -116.664510 12 8956ft 207kts
20-Nov-19 12:50 32.978439 -116.644693 13 8961ft 203kts
20-Nov-19 12:51 33.032485 -116.625122 13 8958ft 202kts
20-Nov-19 12:52 33.086360 -116.605621 12 8954ft 201kts
20-Nov-19 12:53 33.134871 -116.574416 30 8948ft 206kts
20-Nov-19 12:54 33.182373 -116.534944 32 8939ft 210kts
20-Nov-19 12:55 33.230591 -116.494571 32 8929ft 212kts
20-Nov-19 12:56 33.279187 -116.453912 32 8921ft 213kts
20-Nov-19 12:57 33.327990 -116.413003 32 8910ft 214kts
20-Nov-19 12:58 33.376965 -116.371894 32 8906ft 215kts
20-Nov-19 12:59 33.425886 -116.330776 32 8906ft 214kts
20-Nov-19 13:00 33.474799 -116.289606 32 8906ft 214kts
20-Nov-19 13:01 33.511850 -116.236753 70 8907ft 213kts
20-Nov-19 13:02 33.533767 -116.170933 70 8998ft 212kts
20-Nov-19 13:03 33.555751 -116.104855 70 8998ft 213kts
20-Nov-19 13:04 33.587472 -116.070610 309 7109ft 141kts
20-Nov-19 13:05 33.603840 -116.111357 291 5492ft 126kts
20-Nov-19 13:06 33.623808 -116.151657 293 5500ft 146kts
20-Nov-19 13:07 33.637048 -116.199392 280 5166ft 166kts
20-Nov-19 13:08 33.649985 -116.255241 281 4619ft 174kts
20-Nov-19 13:09 33.662944 -116.311667 282 4056ft 176kts
20-Nov-19 13:10 33.677012 -116.365293 302 3907ft 170kts
20-Nov-19 13:11 33.710463 -116.397736 318 2909ft 156kts
20-Nov-19 13:12 33.745073 -116.429674 317 2897ft 151kts
20-Nov-19 13:13 33.773707 -116.456002 316 2356ft 117kts
20-Nov-19 13:14 33.797748 -116.479464 320 1164ft 107kts
20-Nov-19 13:15 33.819973 -116.499035 321 560ft 92kts
20-Nov-19 13:16 33.828667 -116.508002 259 480ft 0kts
20-Nov-19 13:17 33.828627 -116.509089 274 480ft 8kts
20-Nov-19 13:18 33.828398 -116.512127 263 480ft 0kts
20-Nov-19 13:19 33.828398 -116.512130 264 480ft 0kts

Navigation Log

Ident Type
Flight plan parsing failed, navigation log unavailable